Alta Vista, Kansas
Current Conditions -  °F | °C
As of 8:35 AM on Thursday 29 Jan 2015 (Local Time) from KFRI Reporting Station
Haze Haze  
Wind Chill: 32°   Ceiling: 3000
Heat Index: 41°   Visibility: 3mi
Dew Point: 28°   Wind: 18mph
Humidity: 61%   Direction: 10°N
Pressure: 30.35"   Gusts: 36mph
Location:  38.86°N, 96.49°W
Report Text: KFRI 291435Z AUTO 01016G31KT 3SM HZ OVC030 05/M02 A3035 RMK AO2 UPB33E35
Loading
Personal Weather Stations






























Interactive Weather Map New forecast layout! Learn more

10-Day Weather Forecast

Advertisements
Track Severe Weather on mobile